sensor_id;sensor_type;location;lat;lon;timestamp;pressure;altitude;pressure_sealevel;temperature;humidity
56594;BME280;42474;51.660;5.824;2023-07-20T00:00:54;1013.4;;;16.9;99.5
56594;BME280;42474;51.660;5.824;2023-07-20T00:04:54;1013.4;;;17;99.5
56594;BME280;42474;51.660;5.824;2023-07-20T00:08:54;1013.4;;;17;99
56594;BME280;42474;51.660;5.824;2023-07-20T00:12:54;1013.4;;;17;99.5
56594;BME280;42474;51.660;5.824;2023-07-20T00:16:54;1013.5;;;17.1;99.5
56594;BME280;42474;51.660;5.824;2023-07-20T00:20:54;1013.5;;;17.1;100
56594;BME280;42474;51.660;5.824;2023-07-20T00:24:54;1013.5;;;17;100
56594;BME280;42474;51.660;5.824;2023-07-20T00:28:54;1013.4;;;17;100
56594;BME280;42474;51.660;5.824;2023-07-20T00:32:54;1013.5;;;16.8;100
56594;BME280;42474;51.660;5.824;2023-07-20T00:36:54;1013.5;;;16.8;100
56594;BME280;42474;51.660;5.824;2023-07-20T00:40:54;1013.4;;;16.8;100
56594;BME280;42474;51.660;5.824;2023-07-20T00:44:54;1013.4;;;16.7;100
56594;BME280;42474;51.660;5.824;2023-07-20T00:48:54;1013.4;;;16.8;100
56594;BME280;42474;51.660;5.824;2023-07-20T00:52:54;1013.4;;;16.7;100
56594;BME280;42474;51.660;5.824;2023-07-20T00:56:54;1013.4;;;16.7;100
56594;BME280;42474;51.660;5.824;2023-07-20T01:00:54;1013.5;;;16.7;100
56594;BME280;42474;51.660;5.824;2023-07-20T01:04:54;1013.5;;;16.7;100
56594;BME280;42474;51.660;5.824;2023-07-20T01:08:57;1013.5;;;16.7;100
56594;BME280;42474;51.660;5.824;2023-07-20T01:12:54;1013.5;;;16.7;100
56594;BME280;42474;51.660;5.824;2023-07-20T01:16:54;1013.5;;;16.6;100
56594;BME280;42474;51.660;5.824;2023-07-20T01:20:56;1013.5;;;16.6;100
56594;BME280;42474;51.660;5.824;2023-07-20T01:24:57;1013.5;;;16.5;100
56594;BME280;42474;51.660;5.824;2023-07-20T01:29:01;1013.6;;;16.4;100
56594;BME280;42474;51.660;5.824;2023-07-20T01:32:54;1013.5;;;16.4;100
56594;BME280;42474;51.660;5.824;2023-07-20T01:36:54;1013.6;;;16.3;100
56594;BME280;42474;51.660;5.824;2023-07-20T01:40:54;1013.5;;;16.3;100
56594;BME280;42474;51.660;5.824;2023-07-20T01:44:54;1013.5;;;16.2;100
56594;BME280;42474;51.660;5.824;2023-07-20T01:48:54;1013.5;;;16.2;100
56594;BME280;42474;51.660;5.824;2023-07-20T01:52:54;1013.5;;;16.1;100
56594;BME280;42474;51.660;5.824;2023-07-20T01:56:54;1013.5;;;16;100
56594;BME280;42474;51.660;5.824;2023-07-20T02:00:54;1013.6;;;16;100
56594;BME280;42474;51.660;5.824;2023-07-20T02:04:54;1013.6;;;16;100
56594;BME280;42474;51.660;5.824;2023-07-20T02:08:54;1013.7;;;16;100
56594;BME280;42474;51.660;5.824;2023-07-20T02:12:54;1013.7;;;16;100
56594;BME280;42474;51.660;5.824;2023-07-20T02:16:54;1013.7;;;16.1;100
56594;BME280;42474;51.660;5.824;2023-07-20T02:20:54;1013.7;;;16.1;100
56594;BME280;42474;51.660;5.824;2023-07-20T02:24:54;1013.7;;;16.1;100
56594;BME280;42474;51.660;5.824;2023-07-20T02:28:54;1013.7;;;16.1;100
56594;BME280;42474;51.660;5.824;2023-07-20T02:32:54;1013.7;;;16;100
56594;BME280;42474;51.660;5.824;2023-07-20T02:36:54;1013.6;;;16;100
56594;BME280;42474;51.660;5.824;2023-07-20T02:40:54;1013.7;;;15.8;100
56594;BME280;42474;51.660;5.824;2023-07-20T02:44:54;1013.7;;;15.7;100
56594;BME280;42474;51.660;5.824;2023-07-20T02:48:54;1013.8;;;15.6;100
56594;BME280;42474;51.660;5.824;2023-07-20T02:52:54;1013.9;;;15.6;100
56594;BME280;42474;51.660;5.824;2023-07-20T02:56:54;1013.9;;;15.6;100
56594;BME280;42474;51.660;5.824;2023-07-20T03:00:54;1013.9;;;15.7;100
56594;BME280;42474;51.660;5.824;2023-07-20T03:04:54;1014;;;15.6;100
56594;BME280;42474;51.660;5.824;2023-07-20T03:08:54;1014;;;15.6;100
56594;BME280;42474;51.660;5.824;2023-07-20T03:12:54;1014.1;;;15.7;100
56594;BME280;42474;51.660;5.824;2023-07-20T03:16:54;1014.2;;;15.7;100
56594;BME280;42474;51.660;5.824;2023-07-20T03:20:54;1014.2;;;15.7;100
56594;BME280;42474;51.660;5.824;2023-07-20T03:24:54;1014.2;;;15.6;100
56594;BME280;42474;51.660;5.824;2023-07-20T03:28:54;1014.2;;;15.5;100
56594;BME280;42474;51.660;5.824;2023-07-20T03:32:54;1014.3;;;15.4;100
56594;BME280;42474;51.660;5.824;2023-07-20T03:36:54;1014.3;;;15.3;100
56594;BME280;42474;51.660;5.824;2023-07-20T03:40:55;1014.4;;;15.3;100
56594;BME280;42474;51.660;5.824;2023-07-20T03:44:54;1014.4;;;15.2;100
56594;BME280;42474;51.660;5.824;2023-07-20T03:48:54;1014.3;;;15.1;100
56594;BME280;42474;51.660;5.824;2023-07-20T03:52:54;1014.3;;;15;100
56594;BME280;42474;51.660;5.824;2023-07-20T03:56:54;1014.4;;;15;100
56594;BME280;42474;51.660;5.824;2023-07-20T04:00:54;1014.4;;;15;100
56594;BME280;42474;51.660;5.824;2023-07-20T04:04:54;1014.4;;;15;100
56594;BME280;42474;51.660;5.824;2023-07-20T04:08:54;1014.4;;;15;100
56594;BME280;42474;51.660;5.824;2023-07-20T04:12:54;1014.4;;;15;100
56594;BME280;42474;51.660;5.824;2023-07-20T04:16:54;1014.4;;;15;100
56594;BME280;42474;51.660;5.824;2023-07-20T04:20:54;1014.4;;;15;100
56594;BME280;42474;51.660;5.824;2023-07-20T04:24:54;1014.5;;;15.1;100
56594;BME280;42474;51.660;5.824;2023-07-20T04:28:54;1014.5;;;15.1;100
56594;BME280;42474;51.660;5.824;2023-07-20T04:32:54;1014.6;;;15.1;100
56594;BME280;42474;51.660;5.824;2023-07-20T04:36:54;1014.6;;;15.2;100
56594;BME280;42474;51.660;5.824;2023-07-20T04:40:54;1014.6;;;15.3;100
56594;BME280;42474;51.660;5.824;2023-07-20T04:44:54;1014.5;;;15.3;100
56594;BME280;42474;51.660;5.824;2023-07-20T04:48:54;1014.6;;;15.4;100
56594;BME280;42474;51.660;5.824;2023-07-20T04:52:54;1014.6;;;15.5;100
56594;BME280;42474;51.660;5.824;2023-07-20T04:56:54;1014.5;;;19.3;98.5
56594;BME280;42474;51.660;5.824;2023-07-20T05:00:54;1014.4;;;23;66.5
56594;BME280;42474;51.660;5.824;2023-07-20T05:04:54;1014.4;;;21.7;67.5
56594;BME280;42474;51.660;5.824;2023-07-20T05:08:54;1014.5;;;18.9;82
56594;BME280;42474;51.660;5.824;2023-07-20T05:12:54;1014.5;;;17.6;92
56594;BME280;42474;51.660;5.824;2023-07-20T05:16:54;1014.5;;;17.2;96.5
56594;BME280;42474;51.660;5.824;2023-07-20T05:20:54;1014.5;;;16.8;99.5
56594;BME280;42474;51.660;5.824;2023-07-20T05:24:54;1014.6;;;16.6;100
56594;BME280;42474;51.660;5.824;2023-07-20T05:28:54;1014.6;;;16.4;100
56594;BME280;42474;51.660;5.824;2023-07-20T05:32:54;1014.6;;;16.6;100
56594;BME280;42474;51.660;5.824;2023-07-20T05:36:54;1014.7;;;16.5;100
56594;BME280;42474;51.660;5.824;2023-07-20T05:40:58;1014.7;;;16.7;100
56594;BME280;42474;51.660;5.824;2023-07-20T05:44:54;1014.7;;;17;100
56594;BME280;42474;51.660;5.824;2023-07-20T05:48:54;1014.7;;;16.9;100
56594;BME280;42474;51.660;5.824;2023-07-20T05:52:54;1014.7;;;17.6;100
56594;BME280;42474;51.660;5.824;2023-07-20T05:56:54;1014.7;;;17.9;99.5
56594;BME280;42474;51.660;5.824;2023-07-20T06:00:54;1014.8;;;17.3;100
56594;BME280;42474;51.660;5.824;2023-07-20T06:04:54;1014.8;;;17.3;100
56594;BME280;42474;51.660;5.824;2023-07-20T06:08:54;1014.9;;;17;100
56594;BME280;42474;51.660;5.824;2023-07-20T06:12:54;1015;;;17.4;100
56594;BME280;42474;51.660;5.824;2023-07-20T06:16:54;1015.1;;;17.3;99.5
56594;BME280;42474;51.660;5.824;2023-07-20T06:20:54;1015.1;;;17.4;97
56594;BME280;42474;51.660;5.824;2023-07-20T06:24:54;1015.1;;;17.6;96.5
56594;BME280;42474;51.660;5.824;2023-07-20T06:28:54;1015.1;;;17.9;94
56594;BME280;42474;51.660;5.824;2023-07-20T06:32:54;1015.1;;;18.4;90.5
56594;BME280;42474;51.660;5.824;2023-07-20T06:36:54;1015.1;;;18.2;92
56594;BME280;42474;51.660;5.824;2023-07-20T06:40:54;1015;;;18;92.5
56594;BME280;42474;51.660;5.824;2023-07-20T06:44:54;1015;;;18.2;92.5
56594;BME280;42474;51.660;5.824;2023-07-20T06:48:54;1015;;;18.5;89.5
56594;BME280;42474;51.660;5.824;2023-07-20T06:52:54;1015.1;;;18.6;84
56594;BME280;42474;51.660;5.824;2023-07-20T06:56:54;1015.1;;;18.8;84.5
56594;BME280;42474;51.660;5.824;2023-07-20T07:00:54;1015.1;;;18.6;84.5
56594;BME280;42474;51.660;5.824;2023-07-20T07:04:54;1015.1;;;18.9;84.5
56594;BME280;42474;51.660;5.824;2023-07-20T07:08:54;1015.1;;;19.1;84.5
56594;BME280;42474;51.660;5.824;2023-07-20T07:12:54;1015.1;;;19.3;81
56594;BME280;42474;51.660;5.824;2023-07-20T07:16:54;1015.2;;;19.5;78
56594;BME280;42474;51.660;5.824;2023-07-20T07:20:54;1015.2;;;19.1;78
56594;BME280;42474;51.660;5.824;2023-07-20T07:24:54;1015.1;;;18.9;80
56594;BME280;42474;51.660;5.824;2023-07-20T07:28:54;1015.1;;;19.2;78
56594;BME280;42474;51.660;5.824;2023-07-20T07:32:54;1015.2;;;19.5;75
56594;BME280;42474;51.660;5.824;2023-07-20T07:36:54;1015.2;;;19.4;74.5
56594;BME280;42474;51.660;5.824;2023-07-20T07:40:54;1015.2;;;20.2;75.5
56594;BME280;42474;51.660;5.824;2023-07-20T07:44:54;1015.2;;;20.7;70.5
56594;BME280;42474;51.660;5.824;2023-07-20T07:48:54;1015.2;;;20.9;67.5
56594;BME280;42474;51.660;5.824;2023-07-20T07:52:54;1015.2;;;20.7;69
56594;BME280;42474;51.660;5.824;2023-07-20T07:56:54;1015.3;;;20.9;66
56594;BME280;42474;51.660;5.824;2023-07-20T08:00:54;1015.3;;;20.6;66.5
56594;BME280;42474;51.660;5.824;2023-07-20T08:04:54;1015.4;;;20.3;65.5
56594;BME280;42474;51.660;5.824;2023-07-20T08:08:54;1015.4;;;21;64
56594;BME280;42474;51.660;5.824;2023-07-20T08:12:54;1015.4;;;21.4;64
56594;BME280;42474;51.660;5.824;2023-07-20T08:16:54;1015.4;;;21.9;63
56594;BME280;42474;51.660;5.824;2023-07-20T08:20:57;1015.4;;;22;62
56594;BME280;42474;51.660;5.824;2023-07-20T08:24:54;1015.4;;;22.2;61.5
56594;BME280;42474;51.660;5.824;2023-07-20T08:28:54;1015.5;;;21.6;64
56594;BME280;42474;51.660;5.824;2023-07-20T08:32:54;1015.5;;;21.5;61.5
56594;BME280;42474;51.660;5.824;2023-07-20T08:36:54;1015.5;;;21.1;63
56594;BME280;42474;51.660;5.824;2023-07-20T08:40:54;1015.5;;;21.1;65
56594;BME280;42474;51.660;5.824;2023-07-20T08:44:54;1015.5;;;20.8;64
56594;BME280;42474;51.660;5.824;2023-07-20T08:48:54;1015.5;;;20.5;64
56594;BME280;42474;51.660;5.824;2023-07-20T08:52:54;1015.5;;;20.9;64.5
56594;BME280;42474;51.660;5.824;2023-07-20T08:56:54;1015.4;;;21.6;61
56594;BME280;42474;51.660;5.824;2023-07-20T09:00:54;1015.4;;;21.8;61.5
56594;BME280;42474;51.660;5.824;2023-07-20T09:04:54;1015.4;;;21.4;60.5
56594;BME280;42474;51.660;5.824;2023-07-20T09:08:54;1015.3;;;21.7;57.5
56594;BME280;42474;51.660;5.824;2023-07-20T09:12:54;1015.3;;;22.3;55
56594;BME280;42474;51.660;5.824;2023-07-20T09:16:55;1015.3;;;22.6;59.5
56594;BME280;42474;51.660;5.824;2023-07-20T09:20:57;1015.3;;;22.7;54.5
56594;BME280;42474;51.660;5.824;2023-07-20T09:24:54;1015.2;;;22.9;54
56594;BME280;42474;51.660;5.824;2023-07-20T09:28:54;1015.2;;;23.3;52
56594;BME280;42474;51.660;5.824;2023-07-20T09:32:54;1015.2;;;22.7;49
56594;BME280;42474;51.660;5.824;2023-07-20T09:36:55;1015.2;;;22.2;51.5
56594;BME280;42474;51.660;5.824;2023-07-20T09:40:54;1015.2;;;22.4;58.5
56594;BME280;42474;51.660;5.824;2023-07-20T09:44:55;1015.1;;;22.5;51
56594;BME280;42474;51.660;5.824;2023-07-20T09:48:54;1015.1;;;22.5;56.5
56594;BME280;42474;51.660;5.824;2023-07-20T09:52:54;1015.1;;;22.1;55
56594;BME280;42474;51.660;5.824;2023-07-20T09:56:54;1015.1;;;22;56
56594;BME280;42474;51.660;5.824;2023-07-20T10:00:55;1015.2;;;21.7;56
56594;BME280;42474;51.660;5.824;2023-07-20T10:04:54;1015.1;;;21.5;59
56594;BME280;42474;51.660;5.824;2023-07-20T10:08:55;1015.1;;;21.3;60.5
56594;BME280;42474;51.660;5.824;2023-07-20T10:12:54;1015.1;;;21.2;61
56594;BME280;42474;51.660;5.824;2023-07-20T10:16:55;1015.1;;;21.2;62
56594;BME280;42474;51.660;5.824;2023-07-20T10:20:54;1015.1;;;21.2;61
56594;BME280;42474;51.660;5.824;2023-07-20T10:24:54;1015.1;;;21.4;61
56594;BME280;42474;51.660;5.824;2023-07-20T10:28:54;1015.1;;;21.7;61
56594;BME280;42474;51.660;5.824;2023-07-20T10:32:54;1015.1;;;22.2;57.5
56594;BME280;42474;51.660;5.824;2023-07-20T10:36:54;1015.1;;;22.8;55.5
56594;BME280;42474;51.660;5.824;2023-07-20T10:40:55;1015;;;22.8;56.5
56594;BME280;42474;51.660;5.824;2023-07-20T10:44:54;1014.9;;;23.3;55
56594;BME280;42474;51.660;5.824;2023-07-20T10:49:02;1014.9;;;23.4;56
56594;BME280;42474;51.660;5.824;2023-07-20T10:53:04;1014.8;;;23;50.5
56594;BME280;42474;51.660;5.824;2023-07-20T10:56:55;1014.8;;;22.6;55
56594;BME280;42474;51.660;5.824;2023-07-20T11:00:57;1014.7;;;23.4;55
56594;BME280;42474;51.660;5.824;2023-07-20T11:04:54;1014.7;;;24.5;57
56594;BME280;42474;51.660;5.824;2023-07-20T11:08:54;1014.7;;;25;49.5
56594;BME280;42474;51.660;5.824;2023-07-20T11:13:25;1014.7;;;24.4;46.5
56594;BME280;42474;51.660;5.824;2023-07-20T11:16:54;1014.7;;;24.5;52.5
56594;BME280;42474;51.660;5.824;2023-07-20T11:20:54;1014.7;;;24.4;48
56594;BME280;42474;51.660;5.824;2023-07-20T11:24:55;1014.6;;;24.9;51
56594;BME280;42474;51.660;5.824;2023-07-20T11:28:57;1014.6;;;25;50
56594;BME280;42474;51.660;5.824;2023-07-20T11:32:55;1014.6;;;24.8;47.5
56594;BME280;42474;51.660;5.824;2023-07-20T11:36:54;1014.6;;;24.5;50
56594;BME280;42474;51.660;5.824;2023-07-20T11:40:54;1014.5;;;24.4;47.5
56594;BME280;42474;51.660;5.824;2023-07-20T11:44:54;1014.5;;;23.9;48
56594;BME280;42474;51.660;5.824;2023-07-20T11:48:56;1014.4;;;23.8;49
56594;BME280;42474;51.660;5.824;2023-07-20T11:52:54;1014.4;;;23.4;49.5
56594;BME280;42474;51.660;5.824;2023-07-20T11:56:54;1014.4;;;23.9;51
56594;BME280;42474;51.660;5.824;2023-07-20T12:00:55;1014.3;;;23.8;50
56594;BME280;42474;51.660;5.824;2023-07-20T12:04:54;1014.3;;;24.2;50.5
56594;BME280;42474;51.660;5.824;2023-07-20T12:08:55;1014.3;;;24.2;50
56594;BME280;42474;51.660;5.824;2023-07-20T12:12:54;1014.3;;;24.5;49
56594;BME280;42474;51.660;5.824;2023-07-20T12:16:54;1014.2;;;24.6;47.5
56594;BME280;42474;51.660;5.824;2023-07-20T12:20:58;1014.2;;;24.7;46
56594;BME280;42474;51.660;5.824;2023-07-20T12:24:54;1014.2;;;24.6;45.5
56594;BME280;42474;51.660;5.824;2023-07-20T12:28:54;1014.2;;;23.8;49.5
56594;BME280;42474;51.660;5.824;2023-07-20T12:32:54;1014.2;;;23.8;50
56594;BME280;42474;51.660;5.824;2023-07-20T12:36:55;1014.2;;;23.8;48
56594;BME280;42474;51.660;5.824;2023-07-20T12:40:54;1014.3;;;23.6;47.5
56594;BME280;42474;51.660;5.824;2023-07-20T12:44:54;1014.2;;;23.9;47.5
56594;BME280;42474;51.660;5.824;2023-07-20T12:48:55;1014.2;;;24.2;47
56594;BME280;42474;51.660;5.824;2023-07-20T12:52:54;1014.1;;;24.6;45.5
56594;BME280;42474;51.660;5.824;2023-07-20T12:56:54;1014;;;24.9;47.5
56594;BME280;42474;51.660;5.824;2023-07-20T13:00:54;1014.1;;;24.7;47
56594;BME280;42474;51.660;5.824;2023-07-20T13:04:54;1014;;;25.2;46
56594;BME280;42474;51.660;5.824;2023-07-20T13:08:54;1013.9;;;25.4;45.5
56594;BME280;42474;51.660;5.824;2023-07-20T13:12:54;1013.9;;;25.4;46
56594;BME280;42474;51.660;5.824;2023-07-20T13:16:55;1013.9;;;25.3;46
56594;BME280;42474;51.660;5.824;2023-07-20T13:20:54;1013.9;;;25.2;43.5
56594;BME280;42474;51.660;5.824;2023-07-20T13:24:54;1013.9;;;24.5;44
56594;BME280;42474;51.660;5.824;2023-07-20T13:28:54;1014;;;24;44.5
56594;BME280;42474;51.660;5.824;2023-07-20T13:32:54;1014;;;23.8;47.5
56594;BME280;42474;51.660;5.824;2023-07-20T13:36:54;1014;;;23.5;47.5
56594;BME280;42474;51.660;5.824;2023-07-20T13:40:54;1014;;;23;48
56594;BME280;42474;51.660;5.824;2023-07-20T13:44:54;1013.9;;;22.9;49.5
56594;BME280;42474;51.660;5.824;2023-07-20T13:48:54;1013.9;;;22.9;51
56594;BME280;42474;51.660;5.824;2023-07-20T13:52:54;1013.9;;;22.9;50
56594;BME280;42474;51.660;5.824;2023-07-20T13:56:55;1013.9;;;23;49.5
56594;BME280;42474;51.660;5.824;2023-07-20T14:00:54;1013.9;;;23.1;49.5
56594;BME280;42474;51.660;5.824;2023-07-20T14:04:54;1013.9;;;23.1;49
56594;BME280;42474;51.660;5.824;2023-07-20T14:08:54;1013.8;;;23.2;49
56594;BME280;42474;51.660;5.824;2023-07-20T14:12:54;1013.8;;;23.3;47
56594;BME280;42474;51.660;5.824;2023-07-20T14:16:55;1013.6;;;24.1;48.5
56594;BME280;42474;51.660;5.824;2023-07-20T14:20:54;1013.5;;;25.6;45
56594;BME280;42474;51.660;5.824;2023-07-20T14:24:54;1013.4;;;26.7;42
56594;BME280;42474;51.660;5.824;2023-07-20T14:28:54;1013.3;;;27.1;41
56594;BME280;42474;51.660;5.824;2023-07-20T14:32:54;1013.3;;;27.2;41
56594;BME280;42474;51.660;5.824;2023-07-20T14:36:54;1013.3;;;27.3;40.5
56594;BME280;42474;51.660;5.824;2023-07-20T14:40:54;1013.3;;;27.3;39
56594;BME280;42474;51.660;5.824;2023-07-20T14:44:54;1013.2;;;27;41
56594;BME280;42474;51.660;5.824;2023-07-20T14:48:54;1013.2;;;27.1;37.5
56594;BME280;42474;51.660;5.824;2023-07-20T14:52:55;1013.2;;;27.2;38
56594;BME280;42474;51.660;5.824;2023-07-20T14:56:55;1013.3;;;26.5;38.5
56594;BME280;42474;51.660;5.824;2023-07-20T15:00:54;1013.2;;;25.9;35.5
56594;BME280;42474;51.660;5.824;2023-07-20T15:04:54;1013.2;;;26.1;38.5
56594;BME280;42474;51.660;5.824;2023-07-20T15:08:55;1013.1;;;26.2;38.5
56594;BME280;42474;51.660;5.824;2023-07-20T15:12:54;1013.2;;;25.7;39
56594;BME280;42474;51.660;5.824;2023-07-20T15:16:54;1013.1;;;25.6;36.5
56594;BME280;42474;51.660;5.824;2023-07-20T15:20:54;1013.1;;;25.6;36.5
56594;BME280;42474;51.660;5.824;2023-07-20T15:24:55;1013.1;;;25.4;36
56594;BME280;42474;51.660;5.824;2023-07-20T15:28:54;1013.1;;;25.2;38.5
56594;BME280;42474;51.660;5.824;2023-07-20T15:32:54;1013.1;;;24.8;39.5
56594;BME280;42474;51.660;5.824;2023-07-20T15:36:54;1013;;;24.6;39.5
56594;BME280;42474;51.660;5.824;2023-07-20T15:40:54;1013;;;24.4;40
56594;BME280;42474;51.660;5.824;2023-07-20T15:44:55;1013;;;24.2;39.5
56594;BME280;42474;51.660;5.824;2023-07-20T15:48:54;1013;;;24.1;39.5
56594;BME280;42474;51.660;5.824;2023-07-20T15:52:54;1013;;;24.1;41.5
56594;BME280;42474;51.660;5.824;2023-07-20T15:56:54;1013;;;23.9;39.5
56594;BME280;42474;51.660;5.824;2023-07-20T16:00:55;1012.9;;;23.9;40
56594;BME280;42474;51.660;5.824;2023-07-20T16:04:54;1012.9;;;23.8;41
56594;BME280;42474;51.660;5.824;2023-07-20T16:08:55;1012.9;;;23.9;41.5
56594;BME280;42474;51.660;5.824;2023-07-20T16:12:54;1012.8;;;23.6;41.5
56594;BME280;42474;51.660;5.824;2023-07-20T16:16:54;1012.7;;;23.3;41.5
56594;BME280;42474;51.660;5.824;2023-07-20T16:20:55;1012.7;;;23.2;43
56594;BME280;42474;51.660;5.824;2023-07-20T16:24:55;1012.7;;;23.2;44
56594;BME280;42474;51.660;5.824;2023-07-20T16:28:55;1012.7;;;23.1;43.5
56594;BME280;42474;51.660;5.824;2023-07-20T16:32:56;1012.7;;;23;44
56594;BME280;42474;51.660;5.824;2023-07-20T16:36:55;1012.7;;;22.8;44.5
56594;BME280;42474;51.660;5.824;2023-07-20T16:40:55;1012.8;;;22.7;45.5
56594;BME280;42474;51.660;5.824;2023-07-20T16:44:55;1012.7;;;22.4;45.5
56594;BME280;42474;51.660;5.824;2023-07-20T16:48:55;1012.7;;;22.2;46.5
56594;BME280;42474;51.660;5.824;2023-07-20T16:52:55;1012.6;;;22.1;46.5
56594;BME280;42474;51.660;5.824;2023-07-20T16:56:55;1012.6;;;21.9;47.5
56594;BME280;42474;51.660;5.824;2023-07-20T17:01:02;1012.6;;;21.8;47.5
56594;BME280;42474;51.660;5.824;2023-07-20T17:04:54;1012.6;;;21.6;49
56594;BME280;42474;51.660;5.824;2023-07-20T17:08:55;1012.6;;;21.3;50
56594;BME280;42474;51.660;5.824;2023-07-20T17:12:55;1012.6;;;21.2;54.5
56594;BME280;42474;51.660;5.824;2023-07-20T17:16:55;1012.6;;;20.8;56
56594;BME280;42474;51.660;5.824;2023-07-20T17:20:55;1012.6;;;20.4;57.5
56594;BME280;42474;51.660;5.824;2023-07-20T17:24:55;1012.7;;;20.1;58
56594;BME280;42474;51.660;5.824;2023-07-20T17:28:55;1012.6;;;19.9;59.5
56594;BME280;42474;51.660;5.824;2023-07-20T17:32:55;1012.7;;;19.7;60
56594;BME280;42474;51.660;5.824;2023-07-20T17:36:55;1012.7;;;19.7;61.5
56594;BME280;42474;51.660;5.824;2023-07-20T17:40:55;1012.6;;;19.5;62
56594;BME280;42474;51.660;5.824;2023-07-20T17:44:55;1012.6;;;19.5;63
56594;BME280;42474;51.660;5.824;2023-07-20T17:48:55;1012.7;;;19.4;62.5
56594;BME280;42474;51.660;5.824;2023-07-20T17:52:55;1012.8;;;19.1;66
56594;BME280;42474;51.660;5.824;2023-07-20T17:56:55;1012.8;;;18.7;74
56594;BME280;42474;51.660;5.824;2023-07-20T18:00:57;1012.9;;;18.1;80.5
56594;BME280;42474;51.660;5.824;2023-07-20T18:04:55;1012.9;;;18;83
56594;BME280;42474;51.660;5.824;2023-07-20T18:08:55;1012.8;;;17.7;84.5
56594;BME280;42474;51.660;5.824;2023-07-20T18:12:55;1012.7;;;17.7;83
56594;BME280;42474;51.660;5.824;2023-07-20T18:16:55;1012.7;;;17.6;84.5
56594;BME280;42474;51.660;5.824;2023-07-20T18:20:55;1012.7;;;17.5;84
56594;BME280;42474;51.660;5.824;2023-07-20T18:24:55;1012.7;;;17.4;84.5
56594;BME280;42474;51.660;5.824;2023-07-20T18:28:55;1012.7;;;17.4;85
56594;BME280;42474;51.660;5.824;2023-07-20T18:32:55;1012.6;;;17.3;83
56594;BME280;42474;51.660;5.824;2023-07-20T18:36:55;1012.6;;;17.2;85
56594;BME280;42474;51.660;5.824;2023-07-20T18:40:55;1012.6;;;17.3;82
56594;BME280;42474;51.660;5.824;2023-07-20T18:44:55;1012.6;;;17.3;84.5
56594;BME280;42474;51.660;5.824;2023-07-20T18:48:55;1012.6;;;17.3;84
56594;BME280;42474;51.660;5.824;2023-07-20T18:52:55;1012.7;;;17.4;85
56594;BME280;42474;51.660;5.824;2023-07-20T18:56:55;1012.6;;;17.4;84
56594;BME280;42474;51.660;5.824;2023-07-20T19:00:57;1012.6;;;17.3;85
56594;BME280;42474;51.660;5.824;2023-07-20T19:04:55;1012.6;;;17.3;85.5
56594;BME280;42474;51.660;5.824;2023-07-20T19:08:55;1012.7;;;17.3;88
56594;BME280;42474;51.660;5.824;2023-07-20T19:12:55;1012.8;;;17.3;88.5
56594;BME280;42474;51.660;5.824;2023-07-20T19:16:55;1012.9;;;17.3;89.5
56594;BME280;42474;51.660;5.824;2023-07-20T19:20:57;1012.9;;;17.3;90
56594;BME280;42474;51.660;5.824;2023-07-20T19:24:55;1013;;;17.2;91.5
56594;BME280;42474;51.660;5.824;2023-07-20T19:28:55;1013;;;17.2;92
56594;BME280;42474;51.660;5.824;2023-07-20T19:32:55;1012.9;;;17.2;93
56594;BME280;42474;51.660;5.824;2023-07-20T19:36:55;1012.9;;;17.1;94
56594;BME280;42474;51.660;5.824;2023-07-20T19:40:56;1012.8;;;17.1;93.5
56594;BME280;42474;51.660;5.824;2023-07-20T19:44:55;1012.8;;;17;96
56594;BME280;42474;51.660;5.824;2023-07-20T19:48:55;1012.8;;;16.9;95.5
56594;BME280;42474;51.660;5.824;2023-07-20T19:52:55;1012.8;;;16.8;96
56594;BME280;42474;51.660;5.824;2023-07-20T19:56:55;1012.7;;;16.8;95
56594;BME280;42474;51.660;5.824;2023-07-20T20:00:55;1012.7;;;16.7;93.5
56594;BME280;42474;51.660;5.824;2023-07-20T20:04:55;1012.8;;;16.7;94
56594;BME280;42474;51.660;5.824;2023-07-20T20:08:55;1012.8;;;16.6;94.5
56594;BME280;42474;51.660;5.824;2023-07-20T20:12:55;1012.7;;;16.6;96
56594;BME280;42474;51.660;5.824;2023-07-20T20:16:55;1012.8;;;16.6;95.5
56594;BME280;42474;51.660;5.824;2023-07-20T20:20:55;1012.8;;;16.5;95.5
56594;BME280;42474;51.660;5.824;2023-07-20T20:24:55;1012.8;;;16.4;97
56594;BME280;42474;51.660;5.824;2023-07-20T20:28:55;1012.8;;;16.2;99.5
56594;BME280;42474;51.660;5.824;2023-07-20T20:32:55;1012.7;;;16.1;98.5
56594;BME280;42474;51.660;5.824;2023-07-20T20:36:55;1012.7;;;16.3;98
56594;BME280;42474;51.660;5.824;2023-07-20T20:40:55;1012.7;;;16.4;95.5
56594;BME280;42474;51.660;5.824;2023-07-20T20:44:55;1012.7;;;16.3;94.5
56594;BME280;42474;51.660;5.824;2023-07-20T20:48:55;1012.7;;;16.2;98
56594;BME280;42474;51.660;5.824;2023-07-20T20:52:55;1012.7;;;16.1;99.5
56594;BME280;42474;51.660;5.824;2023-07-20T20:56:55;1012.7;;;15.9;99.5
56594;BME280;42474;51.660;5.824;2023-07-20T21:00:58;1012.7;;;15.8;100
56594;BME280;42474;51.660;5.824;2023-07-20T21:04:55;1012.7;;;15.7;100
56594;BME280;42474;51.660;5.824;2023-07-20T21:08:55;1012.6;;;15.6;100
56594;BME280;42474;51.660;5.824;2023-07-20T21:12:55;1012.5;;;15.5;100
56594;BME280;42474;51.660;5.824;2023-07-20T21:16:55;1012.6;;;15.4;100
56594;BME280;42474;51.660;5.824;2023-07-20T21:20:55;1012.6;;;15.3;100
56594;BME280;42474;51.660;5.824;2023-07-20T21:24:55;1012.5;;;15.3;100
56594;BME280;42474;51.660;5.824;2023-07-20T21:28:55;1012.5;;;15.2;100
56594;BME280;42474;51.660;5.824;2023-07-20T21:32:55;1012.5;;;15.1;100
56594;BME280;42474;51.660;5.824;2023-07-20T21:36:55;1012.5;;;15;100
56594;BME280;42474;51.660;5.824;2023-07-20T21:40:55;1012.5;;;15;100
56594;BME280;42474;51.660;5.824;2023-07-20T21:44:55;1012.5;;;14.9;100
56594;BME280;42474;51.660;5.824;2023-07-20T21:48:55;1012.5;;;14.8;100
56594;BME280;42474;51.660;5.824;2023-07-20T21:52:55;1012.5;;;14.8;100
56594;BME280;42474;51.660;5.824;2023-07-20T21:56:55;1012.5;;;14.8;100
56594;BME280;42474;51.660;5.824;2023-07-20T22:04:55;1012.6;;;14.7;100
56594;BME280;42474;51.660;5.824;2023-07-20T22:08:55;1012.5;;;14.7;100
56594;BME280;42474;51.660;5.824;2023-07-20T22:12:55;1012.5;;;14.5;100
56594;BME280;42474;51.660;5.824;2023-07-20T22:16:55;1012.5;;;14.3;100
56594;BME280;42474;51.660;5.824;2023-07-20T22:20:55;1012.5;;;14.3;100
56594;BME280;42474;51.660;5.824;2023-07-20T22:24:55;1012.5;;;14.3;100
56594;BME280;42474;51.660;5.824;2023-07-20T22:28:55;1012.4;;;14.3;100
56594;BME280;42474;51.660;5.824;2023-07-20T22:32:55;1012.4;;;14.3;100
56594;BME280;42474;51.660;5.824;2023-07-20T22:36:55;1012.4;;;14.3;100
56594;BME280;42474;51.660;5.824;2023-07-20T22:40:55;1012.4;;;14.2;100
56594;BME280;42474;51.660;5.824;2023-07-20T22:44:55;1012.4;;;14.2;100
56594;BME280;42474;51.660;5.824;2023-07-20T22:48:55;1012.4;;;14.1;100
56594;BME280;42474;51.660;5.824;2023-07-20T22:52:55;1012.4;;;14.1;100